LTFM

Istanbul Airport

ICAO Code LTFM
IATA Code IST
Name Istanbul Airport
Location Istanbul, Istanbul, TR
Elevation 325 Feet / 99.1 Meters
Latitude 41.27533300
Longitude 28.75200000
METAR LTFM 090920Z 21017KT CAVOK 13/07 Q1016 NOSIG RMK RWY17L 21018KT RWY34L 21016KT RWY16R 21016KT RWY36 22016KT RWY18 21020KT
Extra information Display Charts and CFS
Display NOTAMS
Runway Length Width Surface Elevation